sensor_id;sensor_type;location;lat;lon;timestamp;P1;durP1;ratioP1;P2;durP2;ratioP2
15502;SDS011;7853;52.186;5.948;2023-07-29T00:04:49;4.49;;;3.35;;
15502;SDS011;7853;52.186;5.948;2023-07-29T00:04:49;3.71;;;2.91;;
15502;SDS011;7853;52.186;5.948;2023-07-29T00:04:49;4.49;;;3.07;;
15502;SDS011;7853;52.186;5.948;2023-07-29T00:04:49;4.15;;;3.29;;
15502;SDS011;7853;52.186;5.948;2023-07-29T00:05:36;5.14;;;3.22;;
15502;SDS011;7853;52.186;5.948;2023-07-29T00:06:35;4.93;;;3.06;;
15502;SDS011;7853;52.186;5.948;2023-07-29T00:07:35;4.19;;;3.25;;
15502;SDS011;7853;52.186;5.948;2023-07-29T00:08:35;4.82;;;3.15;;
15502;SDS011;7853;52.186;5.948;2023-07-29T00:09:35;4.25;;;2.93;;
15502;SDS011;7853;52.186;5.948;2023-07-29T00:10:35;5.15;;;3.23;;
15502;SDS011;7853;52.186;5.948;2023-07-29T00:11:35;5.62;;;3.13;;
15502;SDS011;7853;52.186;5.948;2023-07-29T00:12:35;4.95;;;3.34;;
15502;SDS011;7853;52.186;5.948;2023-07-29T00:13:35;9.40;;;3.68;;
15502;SDS011;7853;52.186;5.948;2023-07-29T00:14:35;3.90;;;2.81;;
15502;SDS011;7853;52.186;5.948;2023-07-29T00:15:35;4.46;;;2.97;;
15502;SDS011;7853;52.186;5.948;2023-07-29T00:16:35;4.47;;;3.06;;
15502;SDS011;7853;52.186;5.948;2023-07-29T00:17:35;4.49;;;3.14;;
15502;SDS011;7853;52.186;5.948;2023-07-29T00:18:35;4.03;;;2.81;;
15502;SDS011;7853;52.186;5.948;2023-07-29T00:19:35;3.56;;;2.68;;
15502;SDS011;7853;52.186;5.948;2023-07-29T00:20:35;3.35;;;2.58;;
15502;SDS011;7853;52.186;5.948;2023-07-29T00:21:35;4.61;;;2.72;;
15502;SDS011;7853;52.186;5.948;2023-07-29T00:22:35;4.19;;;2.57;;
15502;SDS011;7853;52.186;5.948;2023-07-29T00:23:35;4.54;;;2.65;;
15502;SDS011;7853;52.186;5.948;2023-07-29T00:24:35;3.47;;;2.58;;
15502;SDS011;7853;52.186;5.948;2023-07-29T00:25:35;4.22;;;2.86;;
15502;SDS011;7853;52.186;5.948;2023-07-29T00:26:35;3.67;;;2.64;;
15502;SDS011;7853;52.186;5.948;2023-07-29T00:27:35;3.18;;;2.39;;
15502;SDS011;7853;52.186;5.948;2023-07-29T00:28:35;4.17;;;2.58;;
15502;SDS011;7853;52.186;5.948;2023-07-29T00:29:35;3.20;;;2.43;;
15502;SDS011;7853;52.186;5.948;2023-07-29T00:30:35;3.06;;;2.42;;
15502;SDS011;7853;52.186;5.948;2023-07-29T00:31:35;3.27;;;2.31;;
15502;SDS011;7853;52.186;5.948;2023-07-29T00:32:35;3.46;;;2.18;;
15502;SDS011;7853;52.186;5.948;2023-07-29T00:33:35;3.06;;;2.48;;
15502;SDS011;7853;52.186;5.948;2023-07-29T00:34:35;4.16;;;2.23;;
15502;SDS011;7853;52.186;5.948;2023-07-29T00:35:35;3.49;;;2.31;;
15502;SDS011;7853;52.186;5.948;2023-07-29T00:36:35;2.84;;;2.22;;
15502;SDS011;7853;52.186;5.948;2023-07-29T00:37:35;3.87;;;2.46;;
15502;SDS011;7853;52.186;5.948;2023-07-29T00:38:35;3.63;;;2.59;;
15502;SDS011;7853;52.186;5.948;2023-07-29T00:39:35;3.13;;;2.39;;
15502;SDS011;7853;52.186;5.948;2023-07-29T00:40:35;2.99;;;2.17;;
15502;SDS011;7853;52.186;5.948;2023-07-29T00:41:35;3.33;;;2.10;;
15502;SDS011;7853;52.186;5.948;2023-07-29T00:42:35;3.30;;;2.34;;
15502;SDS011;7853;52.186;5.948;2023-07-29T00:43:35;3.13;;;2.16;;
15502;SDS011;7853;52.186;5.948;2023-07-29T00:44:35;3.90;;;2.30;;
15502;SDS011;7853;52.186;5.948;2023-07-29T00:45:35;3.12;;;2.19;;
15502;SDS011;7853;52.186;5.948;2023-07-29T00:46:35;3.12;;;2.24;;
15502;SDS011;7853;52.186;5.948;2023-07-29T00:47:35;2.83;;;2.15;;
15502;SDS011;7853;52.186;5.948;2023-07-29T00:48:35;3.20;;;2.32;;
15502;SDS011;7853;52.186;5.948;2023-07-29T00:49:35;3.31;;;2.32;;
15502;SDS011;7853;52.186;5.948;2023-07-29T00:50:35;3.50;;;2.43;;
15502;SDS011;7853;52.186;5.948;2023-07-29T00:51:35;2.84;;;2.23;;
15502;SDS011;7853;52.186;5.948;2023-07-29T00:52:35;3.03;;;2.17;;
15502;SDS011;7853;52.186;5.948;2023-07-29T00:53:35;2.92;;;2.29;;
15502;SDS011;7853;52.186;5.948;2023-07-29T00:54:35;2.84;;;2.13;;
15502;SDS011;7853;52.186;5.948;2023-07-29T00:55:35;3.01;;;2.18;;
15502;SDS011;7853;52.186;5.948;2023-07-29T00:56:35;2.73;;;2.11;;
15502;SDS011;7853;52.186;5.948;2023-07-29T00:57:35;3.16;;;2.38;;
15502;SDS011;7853;52.186;5.948;2023-07-29T00:58:35;2.88;;;2.28;;
15502;SDS011;7853;52.186;5.948;2023-07-29T00:59:35;3.31;;;2.09;;
15502;SDS011;7853;52.186;5.948;2023-07-29T01:00:35;3.59;;;2.27;;
15502;SDS011;7853;52.186;5.948;2023-07-29T01:01:35;3.23;;;2.27;;
15502;SDS011;7853;52.186;5.948;2023-07-29T01:02:35;3.06;;;2.10;;
15502;SDS011;7853;52.186;5.948;2023-07-29T01:03:35;3.59;;;2.15;;
15502;SDS011;7853;52.186;5.948;2023-07-29T01:04:35;3.12;;;2.08;;
15502;SDS011;7853;52.186;5.948;2023-07-29T01:05:36;4.09;;;2.26;;
15502;SDS011;7853;52.186;5.948;2023-07-29T01:06:38;4.08;;;2.27;;
15502;SDS011;7853;52.186;5.948;2023-07-29T01:07:36;2.36;;;1.99;;
15502;SDS011;7853;52.186;5.948;2023-07-29T01:08:37;3.04;;;2.24;;
15502;SDS011;7853;52.186;5.948;2023-07-29T01:09:36;2.76;;;2.03;;
15502;SDS011;7853;52.186;5.948;2023-07-29T01:10:37;2.93;;;2.08;;
15502;SDS011;7853;52.186;5.948;2023-07-29T01:11:38;2.56;;;2.11;;
15502;SDS011;7853;52.186;5.948;2023-07-29T01:12:36;2.27;;;2.03;;
15502;SDS011;7853;52.186;5.948;2023-07-29T01:13:37;3.56;;;2.25;;
15502;SDS011;7853;52.186;5.948;2023-07-29T01:14:36;3.95;;;2.07;;
15502;SDS011;7853;52.186;5.948;2023-07-29T01:15:36;2.34;;;1.97;;
15502;SDS011;7853;52.186;5.948;2023-07-29T01:16:37;3.89;;;2.23;;
15502;SDS011;7853;52.186;5.948;2023-07-29T01:17:35;3.07;;;2.31;;
15502;SDS011;7853;52.186;5.948;2023-07-29T01:18:35;3.34;;;2.12;;
15502;SDS011;7853;52.186;5.948;2023-07-29T01:19:42;2.88;;;2.28;;
15502;SDS011;7853;52.186;5.948;2023-07-29T01:20:36;2.60;;;2.28;;
15502;SDS011;7853;52.186;5.948;2023-07-29T01:21:35;2.88;;;2.13;;
15502;SDS011;7853;52.186;5.948;2023-07-29T01:22:35;3.37;;;2.20;;
15502;SDS011;7853;52.186;5.948;2023-07-29T01:23:35;2.72;;;2.08;;
15502;SDS011;7853;52.186;5.948;2023-07-29T01:24:35;2.56;;;1.92;;
15502;SDS011;7853;52.186;5.948;2023-07-29T01:25:35;2.55;;;2.02;;
15502;SDS011;7853;52.186;5.948;2023-07-29T01:26:35;2.44;;;2.10;;
15502;SDS011;7853;52.186;5.948;2023-07-29T01:27:35;2.56;;;2.12;;
15502;SDS011;7853;52.186;5.948;2023-07-29T01:28:35;3.29;;;2.27;;
15502;SDS011;7853;52.186;5.948;2023-07-29T01:29:35;2.78;;;2.12;;
15502;SDS011;7853;52.186;5.948;2023-07-29T01:30:37;2.86;;;2.16;;
15502;SDS011;7853;52.186;5.948;2023-07-29T01:31:36;3.65;;;2.21;;
15502;SDS011;7853;52.186;5.948;2023-07-29T01:32:36;2.77;;;1.97;;
15502;SDS011;7853;52.186;5.948;2023-07-29T01:33:37;3.44;;;2.27;;
15502;SDS011;7853;52.186;5.948;2023-07-29T01:34:37;2.79;;;2.04;;
15502;SDS011;7853;52.186;5.948;2023-07-29T01:35:35;3.19;;;2.28;;
15502;SDS011;7853;52.186;5.948;2023-07-29T01:36:35;3.17;;;1.98;;
15502;SDS011;7853;52.186;5.948;2023-07-29T01:37:35;3.75;;;2.13;;
15502;SDS011;7853;52.186;5.948;2023-07-29T01:38:35;2.79;;;2.02;;
15502;SDS011;7853;52.186;5.948;2023-07-29T01:39:35;3.23;;;1.98;;
15502;SDS011;7853;52.186;5.948;2023-07-29T01:40:35;3.77;;;2.08;;
15502;SDS011;7853;52.186;5.948;2023-07-29T01:41:35;3.15;;;1.97;;
15502;SDS011;7853;52.186;5.948;2023-07-29T01:42:35;2.71;;;1.84;;
15502;SDS011;7853;52.186;5.948;2023-07-29T01:43:35;2.36;;;1.82;;
15502;SDS011;7853;52.186;5.948;2023-07-29T01:44:35;2.75;;;1.98;;
15502;SDS011;7853;52.186;5.948;2023-07-29T01:45:35;3.56;;;1.87;;
15502;SDS011;7853;52.186;5.948;2023-07-29T01:46:35;2.73;;;1.99;;
15502;SDS011;7853;52.186;5.948;2023-07-29T01:47:35;3.18;;;2.05;;
15502;SDS011;7853;52.186;5.948;2023-07-29T01:48:35;2.74;;;2.04;;
15502;SDS011;7853;52.186;5.948;2023-07-29T01:49:35;2.83;;;2.06;;
15502;SDS011;7853;52.186;5.948;2023-07-29T01:50:35;3.16;;;1.99;;
15502;SDS011;7853;52.186;5.948;2023-07-29T01:51:35;2.38;;;1.93;;
15502;SDS011;7853;52.186;5.948;2023-07-29T01:52:35;2.49;;;1.88;;
15502;SDS011;7853;52.186;5.948;2023-07-29T01:53:35;2.48;;;1.93;;
15502;SDS011;7853;52.186;5.948;2023-07-29T01:54:35;2.79;;;1.90;;
15502;SDS011;7853;52.186;5.948;2023-07-29T01:55:35;3.30;;;2.01;;
15502;SDS011;7853;52.186;5.948;2023-07-29T01:56:35;2.79;;;1.99;;
15502;SDS011;7853;52.186;5.948;2023-07-29T01:57:35;3.10;;;1.93;;
15502;SDS011;7853;52.186;5.948;2023-07-29T01:58:35;4.44;;;2.03;;
15502;SDS011;7853;52.186;5.948;2023-07-29T01:59:35;2.85;;;1.99;;
15502;SDS011;7853;52.186;5.948;2023-07-29T02:00:35;2.47;;;1.86;;
15502;SDS011;7853;52.186;5.948;2023-07-29T02:01:35;2.89;;;2.14;;
15502;SDS011;7853;52.186;5.948;2023-07-29T02:02:35;2.94;;;2.27;;
15502;SDS011;7853;52.186;5.948;2023-07-29T02:03:35;2.87;;;2.18;;
15502;SDS011;7853;52.186;5.948;2023-07-29T02:04:35;3.52;;;2.08;;
15502;SDS011;7853;52.186;5.948;2023-07-29T02:05:35;2.81;;;2.03;;
15502;SDS011;7853;52.186;5.948;2023-07-29T02:06:35;2.76;;;1.93;;
15502;SDS011;7853;52.186;5.948;2023-07-29T02:07:35;3.09;;;2.24;;
15502;SDS011;7853;52.186;5.948;2023-07-29T02:08:35;2.70;;;1.90;;
15502;SDS011;7853;52.186;5.948;2023-07-29T02:09:35;3.47;;;2.15;;
15502;SDS011;7853;52.186;5.948;2023-07-29T02:10:35;3.40;;;1.85;;
15502;SDS011;7853;52.186;5.948;2023-07-29T02:11:35;2.62;;;1.81;;
15502;SDS011;7853;52.186;5.948;2023-07-29T02:12:35;2.81;;;1.92;;
15502;SDS011;7853;52.186;5.948;2023-07-29T02:13:35;2.47;;;1.84;;
15502;SDS011;7853;52.186;5.948;2023-07-29T02:14:35;2.18;;;1.86;;
15502;SDS011;7853;52.186;5.948;2023-07-29T02:15:35;2.58;;;1.81;;
15502;SDS011;7853;52.186;5.948;2023-07-29T02:16:35;2.73;;;1.88;;
15502;SDS011;7853;52.186;5.948;2023-07-29T02:17:35;3.24;;;2.11;;
15502;SDS011;7853;52.186;5.948;2023-07-29T02:18:35;2.45;;;1.99;;
15502;SDS011;7853;52.186;5.948;2023-07-29T02:19:35;2.45;;;1.97;;
15502;SDS011;7853;52.186;5.948;2023-07-29T02:20:35;2.55;;;2.15;;
15502;SDS011;7853;52.186;5.948;2023-07-29T02:21:35;2.66;;;1.87;;
15502;SDS011;7853;52.186;5.948;2023-07-29T02:22:35;2.74;;;1.83;;
15502;SDS011;7853;52.186;5.948;2023-07-29T02:23:35;2.85;;;1.90;;
15502;SDS011;7853;52.186;5.948;2023-07-29T02:24:35;2.17;;;1.81;;
15502;SDS011;7853;52.186;5.948;2023-07-29T02:25:35;2.28;;;1.74;;
15502;SDS011;7853;52.186;5.948;2023-07-29T02:26:35;2.24;;;1.83;;
15502;SDS011;7853;52.186;5.948;2023-07-29T02:27:35;3.04;;;2.02;;
15502;SDS011;7853;52.186;5.948;2023-07-29T02:28:35;2.19;;;1.92;;
15502;SDS011;7853;52.186;5.948;2023-07-29T02:29:35;2.14;;;1.82;;
15502;SDS011;7853;52.186;5.948;2023-07-29T02:30:36;2.96;;;1.94;;
15502;SDS011;7853;52.186;5.948;2023-07-29T02:31:35;3.23;;;1.85;;
15502;SDS011;7853;52.186;5.948;2023-07-29T02:32:35;2.74;;;2.01;;
15502;SDS011;7853;52.186;5.948;2023-07-29T02:33:35;2.84;;;1.91;;
15502;SDS011;7853;52.186;5.948;2023-07-29T02:34:35;3.17;;;1.95;;
15502;SDS011;7853;52.186;5.948;2023-07-29T02:35:35;2.27;;;1.76;;
15502;SDS011;7853;52.186;5.948;2023-07-29T02:36:35;2.94;;;2.07;;
15502;SDS011;7853;52.186;5.948;2023-07-29T02:37:35;2.15;;;1.73;;
15502;SDS011;7853;52.186;5.948;2023-07-29T02:38:35;3.38;;;1.92;;
15502;SDS011;7853;52.186;5.948;2023-07-29T02:39:35;3.01;;;1.91;;
15502;SDS011;7853;52.186;5.948;2023-07-29T02:40:35;3.00;;;1.93;;
15502;SDS011;7853;52.186;5.948;2023-07-29T02:41:35;2.49;;;1.87;;
15502;SDS011;7853;52.186;5.948;2023-07-29T02:42:35;2.46;;;1.78;;
15502;SDS011;7853;52.186;5.948;2023-07-29T02:43:35;2.28;;;1.85;;
15502;SDS011;7853;52.186;5.948;2023-07-29T02:44:35;3.21;;;1.97;;
15502;SDS011;7853;52.186;5.948;2023-07-29T02:45:35;3.02;;;1.89;;
15502;SDS011;7853;52.186;5.948;2023-07-29T02:46:35;3.54;;;1.81;;
15502;SDS011;7853;52.186;5.948;2023-07-29T02:47:35;3.45;;;1.89;;
15502;SDS011;7853;52.186;5.948;2023-07-29T02:48:35;1.98;;;1.67;;
15502;SDS011;7853;52.186;5.948;2023-07-29T02:49:35;2.25;;;1.81;;
15502;SDS011;7853;52.186;5.948;2023-07-29T02:50:35;2.76;;;1.82;;
15502;SDS011;7853;52.186;5.948;2023-07-29T02:51:35;3.26;;;2.03;;
15502;SDS011;7853;52.186;5.948;2023-07-29T02:52:35;3.81;;;1.91;;
15502;SDS011;7853;52.186;5.948;2023-07-29T02:53:35;2.79;;;2.00;;
15502;SDS011;7853;52.186;5.948;2023-07-29T02:54:35;2.73;;;1.86;;
15502;SDS011;7853;52.186;5.948;2023-07-29T02:55:35;2.89;;;1.87;;
15502;SDS011;7853;52.186;5.948;2023-07-29T02:56:35;3.53;;;1.95;;
15502;SDS011;7853;52.186;5.948;2023-07-29T02:57:35;3.00;;;1.77;;
15502;SDS011;7853;52.186;5.948;2023-07-29T02:58:35;3.33;;;2.05;;
15502;SDS011;7853;52.186;5.948;2023-07-29T02:59:35;2.86;;;1.86;;
15502;SDS011;7853;52.186;5.948;2023-07-29T03:00:35;3.38;;;1.86;;
15502;SDS011;7853;52.186;5.948;2023-07-29T03:01:35;3.07;;;2.10;;
15502;SDS011;7853;52.186;5.948;2023-07-29T03:02:35;3.40;;;2.03;;
15502;SDS011;7853;52.186;5.948;2023-07-29T03:03:35;3.72;;;2.12;;
15502;SDS011;7853;52.186;5.948;2023-07-29T03:04:35;3.20;;;2.02;;
15502;SDS011;7853;52.186;5.948;2023-07-29T03:05:35;3.12;;;2.22;;
15502;SDS011;7853;52.186;5.948;2023-07-29T03:06:35;6.25;;;2.20;;
15502;SDS011;7853;52.186;5.948;2023-07-29T03:07:35;3.55;;;2.20;;
15502;SDS011;7853;52.186;5.948;2023-07-29T03:08:35;2.80;;;2.08;;
15502;SDS011;7853;52.186;5.948;2023-07-29T03:09:35;3.32;;;1.97;;
15502;SDS011;7853;52.186;5.948;2023-07-29T03:10:35;3.80;;;2.34;;
15502;SDS011;7853;52.186;5.948;2023-07-29T03:11:35;4.41;;;2.27;;
15502;SDS011;7853;52.186;5.948;2023-07-29T03:12:35;4.00;;;2.32;;
15502;SDS011;7853;52.186;5.948;2023-07-29T03:13:35;5.10;;;2.22;;
15502;SDS011;7853;52.186;5.948;2023-07-29T03:14:35;3.90;;;2.19;;
15502;SDS011;7853;52.186;5.948;2023-07-29T03:15:35;3.18;;;2.42;;
15502;SDS011;7853;52.186;5.948;2023-07-29T03:16:35;4.78;;;2.22;;
15502;SDS011;7853;52.186;5.948;2023-07-29T03:17:35;4.93;;;2.22;;
15502;SDS011;7853;52.186;5.948;2023-07-29T03:18:35;3.26;;;2.25;;
15502;SDS011;7853;52.186;5.948;2023-07-29T03:19:35;3.12;;;2.23;;
15502;SDS011;7853;52.186;5.948;2023-07-29T03:20:35;3.14;;;2.17;;
15502;SDS011;7853;52.186;5.948;2023-07-29T03:21:35;3.63;;;2.19;;
15502;SDS011;7853;52.186;5.948;2023-07-29T03:22:35;3.42;;;2.29;;
15502;SDS011;7853;52.186;5.948;2023-07-29T03:23:35;4.03;;;2.53;;
15502;SDS011;7853;52.186;5.948;2023-07-29T03:24:35;3.28;;;2.26;;
15502;SDS011;7853;52.186;5.948;2023-07-29T03:25:35;3.73;;;2.32;;
15502;SDS011;7853;52.186;5.948;2023-07-29T03:26:35;3.36;;;2.31;;
15502;SDS011;7853;52.186;5.948;2023-07-29T03:27:35;5.20;;;2.49;;
15502;SDS011;7853;52.186;5.948;2023-07-29T03:28:35;6.06;;;2.90;;
15502;SDS011;7853;52.186;5.948;2023-07-29T03:29:35;4.40;;;2.29;;
15502;SDS011;7853;52.186;5.948;2023-07-29T03:30:35;3.60;;;2.48;;
15502;SDS011;7853;52.186;5.948;2023-07-29T03:31:35;4.46;;;2.74;;
15502;SDS011;7853;52.186;5.948;2023-07-29T03:32:35;4.69;;;2.77;;
15502;SDS011;7853;52.186;5.948;2023-07-29T03:33:35;4.24;;;2.64;;
15502;SDS011;7853;52.186;5.948;2023-07-29T03:34:35;4.35;;;2.93;;
15502;SDS011;7853;52.186;5.948;2023-07-29T03:35:35;4.98;;;2.73;;
15502;SDS011;7853;52.186;5.948;2023-07-29T03:36:35;4.38;;;2.85;;
15502;SDS011;7853;52.186;5.948;2023-07-29T03:37:35;4.72;;;2.78;;
15502;SDS011;7853;52.186;5.948;2023-07-29T03:38:35;4.12;;;2.60;;
15502;SDS011;7853;52.186;5.948;2023-07-29T03:39:35;5.29;;;3.18;;
15502;SDS011;7853;52.186;5.948;2023-07-29T03:40:35;3.86;;;2.53;;
15502;SDS011;7853;52.186;5.948;2023-07-29T03:41:35;4.81;;;2.88;;
15502;SDS011;7853;52.186;5.948;2023-07-29T03:42:35;4.16;;;2.77;;
15502;SDS011;7853;52.186;5.948;2023-07-29T03:43:35;4.30;;;2.84;;
15502;SDS011;7853;52.186;5.948;2023-07-29T03:44:35;4.82;;;3.03;;
15502;SDS011;7853;52.186;5.948;2023-07-29T03:45:35;4.42;;;2.80;;
15502;SDS011;7853;52.186;5.948;2023-07-29T03:46:35;4.67;;;3.02;;
15502;SDS011;7853;52.186;5.948;2023-07-29T03:47:35;4.78;;;3.09;;
15502;SDS011;7853;52.186;5.948;2023-07-29T03:48:35;4.52;;;2.99;;
15502;SDS011;7853;52.186;5.948;2023-07-29T03:49:35;4.71;;;3.01;;
15502;SDS011;7853;52.186;5.948;2023-07-29T03:50:35;5.41;;;3.15;;
15502;SDS011;7853;52.186;5.948;2023-07-29T03:51:35;4.71;;;3.02;;
15502;SDS011;7853;52.186;5.948;2023-07-29T03:52:35;5.40;;;3.09;;
15502;SDS011;7853;52.186;5.948;2023-07-29T03:53:35;4.58;;;2.80;;
15502;SDS011;7853;52.186;5.948;2023-07-29T03:54:35;4.98;;;2.82;;
15502;SDS011;7853;52.186;5.948;2023-07-29T03:55:35;5.00;;;3.14;;
15502;SDS011;7853;52.186;5.948;2023-07-29T03:56:35;4.39;;;2.94;;
15502;SDS011;7853;52.186;5.948;2023-07-29T03:57:35;4.42;;;2.97;;
15502;SDS011;7853;52.186;5.948;2023-07-29T03:58:35;6.01;;;3.20;;
15502;SDS011;7853;52.186;5.948;2023-07-29T03:59:35;4.95;;;2.93;;
15502;SDS011;7853;52.186;5.948;2023-07-29T04:00:35;5.59;;;3.12;;
15502;SDS011;7853;52.186;5.948;2023-07-29T04:01:35;4.81;;;2.89;;
15502;SDS011;7853;52.186;5.948;2023-07-29T04:02:35;5.08;;;3.21;;
15502;SDS011;7853;52.186;5.948;2023-07-29T04:03:35;4.21;;;2.90;;
15502;SDS011;7853;52.186;5.948;2023-07-29T04:04:35;4.81;;;3.17;;
15502;SDS011;7853;52.186;5.948;2023-07-29T04:05:35;6.92;;;3.15;;
15502;SDS011;7853;52.186;5.948;2023-07-29T04:06:35;5.96;;;3.68;;
15502;SDS011;7853;52.186;5.948;2023-07-29T04:07:35;6.37;;;3.10;;
15502;SDS011;7853;52.186;5.948;2023-07-29T04:08:35;4.65;;;3.11;;
15502;SDS011;7853;52.186;5.948;2023-07-29T04:09:35;4.83;;;2.80;;
15502;SDS011;7853;52.186;5.948;2023-07-29T04:10:35;4.40;;;2.85;;
15502;SDS011;7853;52.186;5.948;2023-07-29T04:11:35;4.77;;;3.11;;
15502;SDS011;7853;52.186;5.948;2023-07-29T04:12:35;5.99;;;3.14;;
15502;SDS011;7853;52.186;5.948;2023-07-29T04:13:35;5.27;;;3.31;;
15502;SDS011;7853;52.186;5.948;2023-07-29T04:14:35;4.82;;;3.28;;
15502;SDS011;7853;52.186;5.948;2023-07-29T04:15:35;5.18;;;3.25;;
15502;SDS011;7853;52.186;5.948;2023-07-29T04:16:35;4.44;;;3.18;;
15502;SDS011;7853;52.186;5.948;2023-07-29T04:17:35;5.33;;;3.25;;
15502;SDS011;7853;52.186;5.948;2023-07-29T04:18:35;5.02;;;3.14;;
15502;SDS011;7853;52.186;5.948;2023-07-29T04:19:35;5.34;;;3.23;;
15502;SDS011;7853;52.186;5.948;2023-07-29T04:20:35;5.50;;;3.10;;
15502;SDS011;7853;52.186;5.948;2023-07-29T04:21:35;4.81;;;2.93;;
15502;SDS011;7853;52.186;5.948;2023-07-29T04:22:35;4.99;;;3.10;;
15502;SDS011;7853;52.186;5.948;2023-07-29T04:23:35;5.21;;;3.34;;
15502;SDS011;7853;52.186;5.948;2023-07-29T04:24:35;5.37;;;3.07;;
15502;SDS011;7853;52.186;5.948;2023-07-29T04:25:35;4.83;;;3.28;;
15502;SDS011;7853;52.186;5.948;2023-07-29T04:26:35;5.76;;;3.25;;
15502;SDS011;7853;52.186;5.948;2023-07-29T04:27:35;4.33;;;3.03;;
15502;SDS011;7853;52.186;5.948;2023-07-29T04:28:35;7.06;;;3.40;;
15502;SDS011;7853;52.186;5.948;2023-07-29T04:29:35;5.20;;;3.19;;
15502;SDS011;7853;52.186;5.948;2023-07-29T04:30:35;4.77;;;3.20;;
15502;SDS011;7853;52.186;5.948;2023-07-29T04:31:35;4.82;;;3.09;;
15502;SDS011;7853;52.186;5.948;2023-07-29T04:32:35;5.09;;;3.07;;
15502;SDS011;7853;52.186;5.948;2023-07-29T04:33:35;4.89;;;3.04;;
15502;SDS011;7853;52.186;5.948;2023-07-29T04:34:35;4.25;;;2.88;;
15502;SDS011;7853;52.186;5.948;2023-07-29T04:35:35;4.50;;;2.99;;
15502;SDS011;7853;52.186;5.948;2023-07-29T04:36:35;4.43;;;3.29;;
15502;SDS011;7853;52.186;5.948;2023-07-29T04:37:35;5.10;;;3.56;;
15502;SDS011;7853;52.186;5.948;2023-07-29T04:38:36;5.07;;;3.10;;
15502;SDS011;7853;52.186;5.948;2023-07-29T04:39:35;5.05;;;3.06;;
15502;SDS011;7853;52.186;5.948;2023-07-29T04:40:35;5.49;;;3.07;;
15502;SDS011;7853;52.186;5.948;2023-07-29T04:41:35;5.99;;;3.17;;
15502;SDS011;7853;52.186;5.948;2023-07-29T04:42:36;4.84;;;2.94;;
15502;SDS011;7853;52.186;5.948;2023-07-29T04:43:35;4.18;;;2.87;;
15502;SDS011;7853;52.186;5.948;2023-07-29T04:44:35;4.49;;;3.00;;
15502;SDS011;7853;52.186;5.948;2023-07-29T04:45:35;4.96;;;3.14;;
15502;SDS011;7853;52.186;5.948;2023-07-29T04:46:35;4.83;;;2.98;;
15502;SDS011;7853;52.186;5.948;2023-07-29T04:47:35;4.68;;;3.11;;
15502;SDS011;7853;52.186;5.948;2023-07-29T04:48:35;4.75;;;3.18;;
15502;SDS011;7853;52.186;5.948;2023-07-29T04:49:35;5.06;;;3.24;;
15502;SDS011;7853;52.186;5.948;2023-07-29T04:50:35;5.87;;;3.12;;
15502;SDS011;7853;52.186;5.948;2023-07-29T04:51:35;4.37;;;3.03;;
15502;SDS011;7853;52.186;5.948;2023-07-29T04:52:35;4.93;;;3.02;;
15502;SDS011;7853;52.186;5.948;2023-07-29T04:53:35;4.61;;;2.80;;
15502;SDS011;7853;52.186;5.948;2023-07-29T04:54:35;3.93;;;2.96;;
15502;SDS011;7853;52.186;5.948;2023-07-29T04:55:35;4.77;;;2.91;;
15502;SDS011;7853;52.186;5.948;2023-07-29T04:56:35;4.76;;;2.99;;
15502;SDS011;7853;52.186;5.948;2023-07-29T04:57:35;5.34;;;3.13;;
15502;SDS011;7853;52.186;5.948;2023-07-29T04:58:35;5.26;;;2.91;;
15502;SDS011;7853;52.186;5.948;2023-07-29T04:59:35;4.32;;;2.86;;
15502;SDS011;7853;52.186;5.948;2023-07-29T05:00:35;4.55;;;3.06;;
15502;SDS011;7853;52.186;5.948;2023-07-29T05:01:35;3.80;;;2.49;;
15502;SDS011;7853;52.186;5.948;2023-07-29T05:02:35;3.86;;;2.65;;
15502;SDS011;7853;52.186;5.948;2023-07-29T05:03:35;4.20;;;2.74;;
15502;SDS011;7853;52.186;5.948;2023-07-29T05:04:35;4.38;;;2.83;;
15502;SDS011;7853;52.186;5.948;2023-07-29T05:05:35;5.40;;;2.81;;
15502;SDS011;7853;52.186;5.948;2023-07-29T05:06:35;4.24;;;2.72;;
15502;SDS011;7853;52.186;5.948;2023-07-29T05:07:35;4.48;;;2.62;;
15502;SDS011;7853;52.186;5.948;2023-07-29T05:08:35;5.29;;;2.86;;
15502;SDS011;7853;52.186;5.948;2023-07-29T05:09:35;3.43;;;2.52;;
15502;SDS011;7853;52.186;5.948;2023-07-29T05:10:35;4.57;;;2.86;;
15502;SDS011;7853;52.186;5.948;2023-07-29T05:11:35;5.05;;;2.68;;
15502;SDS011;7853;52.186;5.948;2023-07-29T05:12:35;5.16;;;2.60;;
15502;SDS011;7853;52.186;5.948;2023-07-29T05:13:35;4.50;;;2.68;;
15502;SDS011;7853;52.186;5.948;2023-07-29T05:14:35;4.75;;;2.69;;
15502;SDS011;7853;52.186;5.948;2023-07-29T05:15:35;4.17;;;2.69;;
15502;SDS011;7853;52.186;5.948;2023-07-29T05:16:35;4.19;;;2.73;;
15502;SDS011;7853;52.186;5.948;2023-07-29T05:17:35;4.30;;;2.86;;
15502;SDS011;7853;52.186;5.948;2023-07-29T05:18:37;4.72;;;2.50;;
15502;SDS011;7853;52.186;5.948;2023-07-29T05:19:34;4.64;;;2.68;;
15502;SDS011;7853;52.186;5.948;2023-07-29T05:20:34;4.59;;;2.52;;
15502;SDS011;7853;52.186;5.948;2023-07-29T05:21:35;3.76;;;2.37;;
15502;SDS011;7853;52.186;5.948;2023-07-29T05:22:35;4.33;;;2.56;;
15502;SDS011;7853;52.186;5.948;2023-07-29T05:23:35;3.91;;;2.47;;
15502;SDS011;7853;52.186;5.948;2023-07-29T05:24:35;4.79;;;2.79;;
15502;SDS011;7853;52.186;5.948;2023-07-29T05:25:35;4.21;;;2.51;;
15502;SDS011;7853;52.186;5.948;2023-07-29T05:26:35;3.58;;;2.43;;
15502;SDS011;7853;52.186;5.948;2023-07-29T05:27:35;3.84;;;2.40;;
15502;SDS011;7853;52.186;5.948;2023-07-29T05:28:35;3.94;;;2.37;;
15502;SDS011;7853;52.186;5.948;2023-07-29T05:29:35;4.07;;;2.43;;
15502;SDS011;7853;52.186;5.948;2023-07-29T05:30:35;3.87;;;2.21;;
15502;SDS011;7853;52.186;5.948;2023-07-29T05:31:35;5.02;;;2.55;;
15502;SDS011;7853;52.186;5.948;2023-07-29T05:32:35;3.74;;;2.21;;
15502;SDS011;7853;52.186;5.948;2023-07-29T05:33:35;3.35;;;2.38;;
15502;SDS011;7853;52.186;5.948;2023-07-29T05:34:35;4.11;;;2.31;;
15502;SDS011;7853;52.186;5.948;2023-07-29T05:35:35;3.84;;;2.45;;
15502;SDS011;7853;52.186;5.948;2023-07-29T05:36:35;4.29;;;2.77;;
15502;SDS011;7853;52.186;5.948;2023-07-29T05:37:37;3.77;;;2.33;;
15502;SDS011;7853;52.186;5.948;2023-07-29T05:38:35;4.72;;;2.29;;
15502;SDS011;7853;52.186;5.948;2023-07-29T05:39:35;4.01;;;2.22;;
15502;SDS011;7853;52.186;5.948;2023-07-29T05:40:35;3.75;;;2.27;;
15502;SDS011;7853;52.186;5.948;2023-07-29T05:41:35;3.71;;;2.21;;
15502;SDS011;7853;52.186;5.948;2023-07-29T05:42:35;3.45;;;2.14;;
15502;SDS011;7853;52.186;5.948;2023-07-29T05:43:35;3.53;;;2.33;;
15502;SDS011;7853;52.186;5.948;2023-07-29T05:44:35;3.61;;;2.16;;
15502;SDS011;7853;52.186;5.948;2023-07-29T05:45:35;4.39;;;2.05;;
15502;SDS011;7853;52.186;5.948;2023-07-29T05:46:35;3.39;;;2.22;;
15502;SDS011;7853;52.186;5.948;2023-07-29T05:47:35;2.95;;;2.03;;
15502;SDS011;7853;52.186;5.948;2023-07-29T05:48:35;3.19;;;2.05;;
15502;SDS011;7853;52.186;5.948;2023-07-29T05:49:35;4.10;;;2.32;;
15502;SDS011;7853;52.186;5.948;2023-07-29T05:50:35;5.32;;;2.36;;
15502;SDS011;7853;52.186;5.948;2023-07-29T05:51:35;2.88;;;2.08;;
15502;SDS011;7853;52.186;5.948;2023-07-29T05:52:35;4.13;;;2.41;;
15502;SDS011;7853;52.186;5.948;2023-07-29T05:53:35;3.42;;;2.11;;
15502;SDS011;7853;52.186;5.948;2023-07-29T05:54:35;3.73;;;2.31;;
15502;SDS011;7853;52.186;5.948;2023-07-29T05:55:35;3.65;;;2.28;;
15502;SDS011;7853;52.186;5.948;2023-07-29T05:56:35;4.38;;;2.28;;
15502;SDS011;7853;52.186;5.948;2023-07-29T05:57:35;3.21;;;1.97;;
15502;SDS011;7853;52.186;5.948;2023-07-29T05:58:35;4.13;;;2.03;;
15502;SDS011;7853;52.186;5.948;2023-07-29T05:59:35;4.24;;;2.28;;
15502;SDS011;7853;52.186;5.948;2023-07-29T06:00:35;2.97;;;2.05;;
15502;SDS011;7853;52.186;5.948;2023-07-29T06:01:35;3.35;;;2.21;;
15502;SDS011;7853;52.186;5.948;2023-07-29T06:02:35;2.76;;;1.91;;
15502;SDS011;7853;52.186;5.948;2023-07-29T06:03:35;3.39;;;2.14;;
15502;SDS011;7853;52.186;5.948;2023-07-29T06:04:35;3.36;;;2.04;;
15502;SDS011;7853;52.186;5.948;2023-07-29T06:05:35;3.83;;;2.27;;
15502;SDS011;7853;52.186;5.948;2023-07-29T06:06:35;4.59;;;2.28;;
15502;SDS011;7853;52.186;5.948;2023-07-29T06:07:35;3.72;;;2.00;;